EGDP weather

RNAS Portland Heliport
Portland, England, United Kingdom

Public forecast

Using degrees Celsius for public forecast. Weather courtesy of forecast.io.

METAR (pilot weather report)

Closest report is Bournemouth Airport, 26.4 nm (48.8 km) ENE. Retrieved 2019/09/22 06:20 UTC (27 minutes ago):

EGHH 220620Z 24007KT 9999 SCT012 BKN020 18/16 Q1002

TAF (pilot weather forecast)

Forecast is more than 12 hours old.

Closest forecast is Bournemouth Airport, 26.4 nm (48.8 km) ENE. Retrieved 2013/12/01 21:21 UTC (6 years ago):

TAF TAF EGHH 010016Z 3021/0106 CNL